MSR149 HECA-HESN
Flight info
| Callsign | MSR149 |
|---|---|
| Flight time | 1h 4m |
| Altitude | 37000 |
| Route | CVO A727 LXR W605 ASN |
| Aircraft | A21N/M-SDE3FGHIRWY/LB1 |
Departure
| Time | 2026-05-04 08:16 |
|---|---|
| Airport | Cairo International Airport (HECA) |
Arrival
| Time | 2026-05-04 09:20 |
|---|---|
| Airport | Aswan International Airport (HESN) |
| Time | Latitude | Longitude | Altitude | Speed | Heading |
|---|---|---|---|---|---|
| 2026-05-04 07:52 | 30.10782 | 31.39529 | 385 ft | 0 kts | 75° |
| 2026-05-04 07:59 | 30.10780 | 31.39520 | 385 ft | 2 kts | 79° |
| 2026-05-04 07:59 | 30.10777 | 31.39503 | 385 ft | 2 kts | 73° |
| 2026-05-04 07:59 | 30.10772 | 31.39487 | 385 ft | 2 kts | 75° |
| 2026-05-04 08:00 | 30.10768 | 31.39469 | 385 ft | 2 kts | 76° |
| 2026-05-04 08:00 | 30.10770 | 31.39450 | 385 ft | 2 kts | 116° |
| 2026-05-04 08:00 | 30.10780 | 31.39436 | 385 ft | 2 kts | 149° |
| 2026-05-04 08:02 | 30.10793 | 31.39430 | 385 ft | 0 kts | 165° |
| 2026-05-04 08:02 | 30.10793 | 31.39431 | 385 ft | 0 kts | 165° |
| 2026-05-04 08:02 | 30.10789 | 31.39432 | 385 ft | 3 kts | 165° |
| 2026-05-04 08:03 | 30.10727 | 31.39451 | 385 ft | 15 kts | 165° |
| 2026-05-04 08:03 | 30.10603 | 31.39488 | 385 ft | 17 kts | 166° |
| 2026-05-04 08:03 | 30.10520 | 31.39564 | 385 ft | 16 kts | 85° |
| 2026-05-04 08:03 | 30.10539 | 31.39656 | 385 ft | 4 kts | 76° |
| 2026-05-04 08:04 | 30.10543 | 31.39670 | 385 ft | 0 kts | 76° |
| 2026-05-04 08:04 | 30.10554 | 31.39717 | 385 ft | 12 kts | 74° |
| 2026-05-04 08:04 | 30.10540 | 31.39811 | 385 ft | 12 kts | 120° |
| 2026-05-04 08:04 | 30.10499 | 31.39895 | 385 ft | 7 kts | 117° |
| 2026-05-04 08:05 | 30.10486 | 31.39950 | 385 ft | 7 kts | 75° |
| 2026-05-04 08:05 | 30.10516 | 31.40001 | 385 ft | 8 kts | 52° |
| 2026-05-04 08:05 | 30.10556 | 31.40054 | 385 ft | 9 kts | 37° |
| 2026-05-04 08:05 | 30.10601 | 31.40111 | 385 ft | 10 kts | 50° |
| 2026-05-04 08:06 | 30.10661 | 31.40190 | 385 ft | 13 kts | 49° |
| 2026-05-04 08:06 | 30.10708 | 31.40268 | 385 ft | 11 kts | 68° |
| 2026-05-04 08:06 | 30.10685 | 31.40350 | 385 ft | 10 kts | 97° |
| 2026-05-04 08:06 | 30.10723 | 31.40430 | 385 ft | 14 kts | 48° |
| 2026-05-04 08:08 | 30.11316 | 31.41219 | 385 ft | 20 kts | 49° |
| 2026-05-04 08:08 | 30.11398 | 31.41326 | 385 ft | 17 kts | 49° |
| 2026-05-04 08:10 | 30.12086 | 31.42243 | 385 ft | 20 kts | 49° |
| 2026-05-04 08:11 | 30.12173 | 31.42359 | 385 ft | 16 kts | 52° |
| 2026-05-04 08:11 | 30.12344 | 31.42586 | 385 ft | 17 kts | 49° |
| 2026-05-04 08:11 | 30.12420 | 31.42688 | 385 ft | 16 kts | 50° |
| 2026-05-04 08:12 | 30.12472 | 31.42775 | 385 ft | 6 kts | 71° |
| 2026-05-04 08:12 | 30.12477 | 31.42833 | 385 ft | 7 kts | 97° |
| 2026-05-04 08:12 | 30.12454 | 31.42895 | 385 ft | 8 kts | 130° |
| 2026-05-04 08:12 | 30.12451 | 31.42899 | 385 ft | 0 kts | 134° |
| 2026-05-04 08:13 | 30.12451 | 31.42900 | 385 ft | 0 kts | 134° |
| 2026-05-04 08:13 | 30.12418 | 31.42927 | 385 ft | 12 kts | 159° |
| 2026-05-04 08:14 | 30.12323 | 31.42929 | 386 ft | 13 kts | 201° |
| 2026-05-04 08:14 | 30.12270 | 31.42881 | 386 ft | 0 kts | 229° |
| 2026-05-04 08:14 | 30.12268 | 31.42878 | 386 ft | 1 kts | 229° |
| 2026-05-04 08:16 | 30.06807 | 31.38889 | 3141 ft | 215 kts | 163° |
| 2026-05-04 08:16 | 30.05148 | 31.39605 | 3685 ft | 233 kts | 162° |
| 2026-05-04 08:16 | 30.03306 | 31.40338 | 4146 ft | 258 kts | 165° |
| 2026-05-04 08:17 | 30.01411 | 31.41038 | 4721 ft | 276 kts | 166° |
| 2026-05-04 08:17 | 29.99388 | 31.41758 | 5527 ft | 285 kts | 166° |
| 2026-05-04 08:17 | 29.97337 | 31.42477 | 6479 ft | 288 kts | 167° |
| 2026-05-04 08:17 | 29.95282 | 31.43193 | 7382 ft | 291 kts | 168° |
| 2026-05-04 08:19 | 29.80373 | 31.48297 | 11909 ft | 353 kts | 171° |
| 2026-05-04 08:19 | 29.77993 | 31.49118 | 12643 ft | 357 kts | 171° |
| 2026-05-04 08:20 | 29.75574 | 31.49954 | 13406 ft | 360 kts | 172° |
| 2026-05-04 08:20 | 29.73094 | 31.50807 | 14158 ft | 362 kts | 172° |
| 2026-05-04 08:20 | 29.70617 | 31.51653 | 14883 ft | 365 kts | 172° |
| 2026-05-04 08:20 | 29.68133 | 31.52487 | 15574 ft | 368 kts | 173° |
| 2026-05-04 08:21 | 29.65647 | 31.53300 | 16233 ft | 372 kts | 173° |
| 2026-05-04 08:21 | 29.63125 | 31.54122 | 16935 ft | 373 kts | 173° |
| 2026-05-04 08:21 | 29.60618 | 31.54941 | 17593 ft | 376 kts | 174° |
| 2026-05-04 08:21 | 29.58079 | 31.55767 | 18188 ft | 380 kts | 174° |
| 2026-05-04 08:22 | 29.55541 | 31.56595 | 18804 ft | 383 kts | 174° |
| 2026-05-04 08:22 | 29.52976 | 31.57431 | 19372 ft | 386 kts | 174° |
| 2026-05-04 08:24 | 29.34322 | 31.63516 | 23044 ft | 409 kts | 174° |
| 2026-05-04 08:24 | 29.31517 | 31.64428 | 23550 ft | 412 kts | 174° |
| 2026-05-04 08:24 | 29.28782 | 31.65317 | 24023 ft | 415 kts | 174° |
| 2026-05-04 08:24 | 29.25975 | 31.66230 | 24518 ft | 418 kts | 174° |
| 2026-05-04 08:25 | 29.23171 | 31.67142 | 24982 ft | 420 kts | 174° |
| 2026-05-04 08:25 | 29.20315 | 31.68070 | 25449 ft | 423 kts | 174° |
| 2026-05-04 08:25 | 29.17492 | 31.68986 | 25892 ft | 425 kts | 174° |
| 2026-05-04 08:25 | 29.14656 | 31.69907 | 26341 ft | 427 kts | 174° |
| 2026-05-04 08:26 | 29.11790 | 31.70837 | 26755 ft | 430 kts | 174° |
| 2026-05-04 08:27 | 28.91181 | 31.77472 | 29327 ft | 445 kts | 174° |
| 2026-05-04 08:28 | 28.88017 | 31.78477 | 29676 ft | 447 kts | 174° |
| 2026-05-04 08:28 | 28.84983 | 31.79440 | 29995 ft | 449 kts | 173° |
| 2026-05-04 08:28 | 28.81934 | 31.80407 | 30302 ft | 451 kts | 174° |
| 2026-05-04 08:28 | 28.78886 | 31.81375 | 30608 ft | 453 kts | 173° |
| 2026-05-04 08:29 | 28.75865 | 31.82336 | 30939 ft | 453 kts | 174° |
| 2026-05-04 08:29 | 28.72773 | 31.83318 | 31306 ft | 453 kts | 174° |
| 2026-05-04 08:29 | 28.69758 | 31.84275 | 31707 ft | 451 kts | 174° |
| 2026-05-04 08:31 | 28.48295 | 31.91066 | 34077 ft | 444 kts | 174° |
| 2026-05-04 08:33 | 28.27060 | 31.97749 | 35777 ft | 442 kts | 175° |
| 2026-05-04 08:33 | 28.24020 | 31.98702 | 35937 ft | 443 kts | 175° |
| 2026-05-04 08:35 | 28.02447 | 32.05463 | 36967 ft | 448 kts | 175° |
| 2026-05-04 08:35 | 27.99301 | 32.06465 | 37100 ft | 449 kts | 174° |
| 2026-05-04 08:35 | 27.93154 | 32.08436 | 37103 ft | 453 kts | 174° |
| 2026-05-04 08:37 | 27.73939 | 32.14571 | 37098 ft | 470 kts | 174° |
| 2026-05-04 08:37 | 27.70789 | 32.15577 | 37101 ft | 472 kts | 174° |
| 2026-05-04 08:38 | 27.64403 | 32.17612 | 37102 ft | 474 kts | 174° |
| 2026-05-04 08:38 | 27.58028 | 32.19640 | 37101 ft | 474 kts | 174° |
| 2026-05-04 08:40 | 27.32328 | 32.27789 | 37103 ft | 475 kts | 174° |
| 2026-05-04 08:41 | 27.25892 | 32.29824 | 37096 ft | 474 kts | 174° |
| 2026-05-04 08:41 | 27.19439 | 32.31862 | 37100 ft | 475 kts | 174° |
| 2026-05-04 08:42 | 27.13013 | 32.33886 | 37090 ft | 476 kts | 174° |
| 2026-05-04 08:42 | 27.06579 | 32.35915 | 37088 ft | 474 kts | 174° |
| 2026-05-04 08:43 | 27.00147 | 32.37940 | 37083 ft | 474 kts | 174° |
| 2026-05-04 08:43 | 26.93672 | 32.39975 | 37080 ft | 475 kts | 174° |
| 2026-05-04 08:44 | 26.87189 | 32.42009 | 37081 ft | 475 kts | 174° |
| 2026-05-04 08:46 | 26.61537 | 32.50039 | 37090 ft | 474 kts | 174° |
| 2026-05-04 08:46 | 26.55156 | 32.52032 | 37085 ft | 474 kts | 174° |
| 2026-05-04 08:47 | 26.48791 | 32.54016 | 37082 ft | 474 kts | 174° |
| 2026-05-04 08:47 | 26.42443 | 32.55992 | 37080 ft | 473 kts | 174° |
| 2026-05-04 08:48 | 26.36085 | 32.57970 | 37076 ft | 473 kts | 174° |
| 2026-05-04 08:48 | 26.29735 | 32.59942 | 37069 ft | 473 kts | 174° |
| 2026-05-04 08:49 | 26.23428 | 32.61899 | 37065 ft | 473 kts | 174° |
| 2026-05-04 08:50 | 26.01182 | 32.68788 | 37032 ft | 471 kts | 175° |
| 2026-05-04 08:51 | 25.94853 | 32.70741 | 37030 ft | 472 kts | 175° |
| 2026-05-04 08:51 | 25.88502 | 32.72700 | 37033 ft | 472 kts | 175° |
| 2026-05-04 08:52 | 25.82181 | 32.74648 | 37032 ft | 471 kts | 175° |
| 2026-05-04 08:52 | 25.75812 | 32.76205 | 37029 ft | 463 kts | 181° |
| 2026-05-04 08:54 | 25.50549 | 32.77531 | 37047 ft | 451 kts | 188° |
| 2026-05-04 08:55 | 25.44235 | 32.77700 | 37051 ft | 451 kts | 188° |
| 2026-05-04 08:55 | 25.37967 | 32.77867 | 36995 ft | 448 kts | 188° |
| 2026-05-04 08:57 | 25.16288 | 32.78430 | 31761 ft | 457 kts | 187° |
| 2026-05-04 09:01 | 24.74163 | 32.79606 | 23633 ft | 406 kts | 186° |
| 2026-05-04 09:01 | 24.71324 | 32.79684 | 23109 ft | 403 kts | 185° |
| 2026-05-04 09:01 | 24.68535 | 32.79760 | 22584 ft | 401 kts | 185° |
| 2026-05-04 09:01 | 24.65702 | 32.79837 | 22026 ft | 399 kts | 185° |
| 2026-05-04 09:02 | 24.62940 | 32.79914 | 21527 ft | 396 kts | 185° |
| 2026-05-04 09:02 | 24.60211 | 32.79989 | 21037 ft | 393 kts | 185° |
| 2026-05-04 09:02 | 24.57460 | 32.80065 | 20569 ft | 389 kts | 185° |
| 2026-05-04 09:02 | 24.54763 | 32.80141 | 20098 ft | 386 kts | 185° |
| 2026-05-04 09:03 | 24.52078 | 32.80214 | 19630 ft | 383 kts | 185° |
| 2026-05-04 09:03 | 24.49423 | 32.80286 | 19168 ft | 380 kts | 185° |
| 2026-05-04 09:03 | 24.46757 | 32.80359 | 18687 ft | 377 kts | 185° |
| 2026-05-04 09:03 | 24.44149 | 32.80430 | 18235 ft | 374 kts | 184° |
| 2026-05-04 09:04 | 24.41565 | 32.80501 | 17784 ft | 371 kts | 184° |
| 2026-05-04 09:04 | 24.38981 | 32.80572 | 17323 ft | 369 kts | 184° |
| 2026-05-04 09:04 | 24.36398 | 32.80632 | 16870 ft | 365 kts | 186° |
| 2026-05-04 09:04 | 24.33881 | 32.80419 | 16434 ft | 357 kts | 194° |
| 2026-05-04 09:05 | 24.31454 | 32.79833 | 15981 ft | 349 kts | 201° |
| 2026-05-04 09:05 | 24.29128 | 32.79048 | 15545 ft | 346 kts | 203° |
| 2026-05-04 09:05 | 24.26832 | 32.78237 | 15106 ft | 343 kts | 203° |
| 2026-05-04 09:05 | 24.24560 | 32.77433 | 14677 ft | 340 kts | 204° |
| 2026-05-04 09:06 | 24.22308 | 32.76639 | 14271 ft | 337 kts | 204° |
| 2026-05-04 09:07 | 24.06807 | 32.71209 | 11125 ft | 324 kts | 202° |
| 2026-05-04 09:08 | 24.04654 | 32.70458 | 10668 ft | 323 kts | 202° |
| 2026-05-04 09:08 | 24.02522 | 32.69715 | 10304 ft | 318 kts | 201° |
| 2026-05-04 09:08 | 24.00444 | 32.68996 | 10174 ft | 304 kts | 201° |
| 2026-05-04 09:08 | 23.98484 | 32.68318 | 10087 ft | 290 kts | 201° |
| 2026-05-04 09:09 | 23.96590 | 32.67662 | 9953 ft | 279 kts | 201° |
| 2026-05-04 09:09 | 23.94730 | 32.67014 | 9567 ft | 278 kts | 201° |
| 2026-05-04 09:09 | 23.92901 | 32.66374 | 9197 ft | 277 kts | 201° |
| 2026-05-04 09:09 | 23.91060 | 32.65732 | 8838 ft | 275 kts | 201° |
| 2026-05-04 09:10 | 23.89238 | 32.65098 | 8487 ft | 273 kts | 201° |
| 2026-05-04 09:10 | 23.87422 | 32.64466 | 8157 ft | 271 kts | 200° |
| 2026-05-04 09:10 | 23.85621 | 32.63839 | 7817 ft | 270 kts | 200° |
| 2026-05-04 09:10 | 23.83837 | 32.63220 | 7583 ft | 263 kts | 200° |
| 2026-05-04 09:11 | 23.82155 | 32.62638 | 7516 ft | 249 kts | 200° |
| 2026-05-04 09:11 | 23.80508 | 32.62071 | 7481 ft | 244 kts | 200° |
| 2026-05-04 09:11 | 23.78899 | 32.61510 | 7414 ft | 245 kts | 200° |
| 2026-05-04 09:11 | 23.77247 | 32.61028 | 7195 ft | 243 kts | 187° |
| 2026-05-04 09:12 | 23.75626 | 32.61430 | 6943 ft | 243 kts | 147° |
| 2026-05-04 09:12 | 23.74611 | 32.62857 | 6912 ft | 242 kts | 107° |
| 2026-05-04 09:14 | 23.78599 | 32.74182 | 4925 ft | 212 kts | 71° |
| 2026-05-04 09:14 | 23.79028 | 32.75684 | 4639 ft | 207 kts | 71° |
| 2026-05-04 09:14 | 23.79440 | 32.77153 | 4441 ft | 196 kts | 70° |
| 2026-05-04 09:14 | 23.79826 | 32.78545 | 4246 ft | 186 kts | 70° |
| 2026-05-04 09:15 | 23.80187 | 32.79845 | 4053 ft | 176 kts | 69° |
| 2026-05-04 09:15 | 23.80532 | 32.81093 | 3854 ft | 166 kts | 68° |
| 2026-05-04 09:15 | 23.80857 | 32.82267 | 3570 ft | 158 kts | 68° |
| 2026-05-04 09:15 | 23.81168 | 32.83390 | 3213 ft | 153 kts | 65° |
| 2026-05-04 09:17 | 23.88177 | 32.83439 | 1947 ft | 134 kts | 352° |
| 2026-05-04 09:18 | 23.89090 | 32.83280 | 1779 ft | 133 kts | 352° |
| 2026-05-04 09:18 | 23.90014 | 32.83118 | 1607 ft | 133 kts | 352° |
| 2026-05-04 09:18 | 23.90932 | 32.82958 | 1440 ft | 132 kts | 352° |
| 2026-05-04 09:18 | 23.91838 | 32.82796 | 1277 ft | 132 kts | 351° |
| 2026-05-04 09:19 | 23.92754 | 32.82634 | 1081 ft | 132 kts | 351° |
| 2026-05-04 09:19 | 23.93655 | 32.82474 | 914 ft | 131 kts | 352° |
| 2026-05-04 09:19 | 23.94569 | 32.82321 | 744 ft | 130 kts | 352° |
| 2026-05-04 09:19 | 23.95439 | 32.82169 | 657 ft | 115 kts | 352° |
| 2026-05-04 09:20 | 23.96099 | 32.82059 | 648 ft | 77 kts | 351° |
| 2026-05-04 09:20 | 23.96586 | 32.81972 | 646 ft | 55 kts | 351° |
| 2026-05-04 09:20 | 23.96821 | 32.81934 | 646 ft | 25 kts | 358° |
| 2026-05-04 09:20 | 23.96901 | 32.82032 | 646 ft | 16 kts | 79° |
| 2026-05-04 09:21 | 23.96918 | 32.82155 | 646 ft | 12 kts | 82° |
| 2026-05-04 09:21 | 23.96924 | 32.82205 | 646 ft | 5 kts | 79° |
| 2026-05-04 09:21 | 23.96955 | 32.82209 | 646 ft | 6 kts | 350° |
| 2026-05-04 09:21 | 23.97007 | 32.82199 | 646 ft | 8 kts | 353° |
| 2026-05-04 09:22 | 23.97013 | 32.82235 | 645 ft | 5 kts | 141° |
| 2026-05-04 09:22 | 23.96984 | 32.82246 | 645 ft | 3 kts | 169° |
| 2026-05-04 09:22 | 23.96975 | 32.82247 | 645 ft | 0 kts | 170° |